sensor_id;sensor_type;location;lat;lon;timestamp;P1;durP1;ratioP1;P2;durP2;ratioP2
5539;SDS011;2792;52.452;9.752;2022-12-29T00:02:02;4.07;;;2.33;;
5539;SDS011;2792;52.452;9.752;2022-12-29T00:04:29;2.60;;;2.17;;
5539;SDS011;2792;52.452;9.752;2022-12-29T00:06:56;2.60;;;2.33;;
5539;SDS011;2792;52.452;9.752;2022-12-29T00:09:22;1.90;;;1.80;;
5539;SDS011;2792;52.452;9.752;2022-12-29T00:11:49;2.50;;;2.30;;
5539;SDS011;2792;52.452;9.752;2022-12-29T00:14:16;1.90;;;1.80;;
5539;SDS011;2792;52.452;9.752;2022-12-29T00:17:00;1.90;;;1.80;;
5539;SDS011;2792;52.452;9.752;2022-12-29T00:19:28;3.10;;;2.13;;
5539;SDS011;2792;52.452;9.752;2022-12-29T00:22:13;2.23;;;2.03;;
5539;SDS011;2792;52.452;9.752;2022-12-29T00:24:57;2.57;;;1.70;;
5539;SDS011;2792;52.452;9.752;2022-12-29T00:27:42;4.20;;;2.07;;
5539;SDS011;2792;52.452;9.752;2022-12-29T00:30:26;1.70;;;1.47;;
5539;SDS011;2792;52.452;9.752;2022-12-29T00:33:10;1.97;;;1.80;;
5539;SDS011;2792;52.452;9.752;2022-12-29T00:35:56;2.53;;;2.00;;
5539;SDS011;2792;52.452;9.752;2022-12-29T00:38:24;2.00;;;1.87;;
5539;SDS011;2792;52.452;9.752;2022-12-29T00:41:08;1.87;;;1.70;;
5539;SDS011;2792;52.452;9.752;2022-12-29T00:43:52;1.83;;;1.70;;
5539;SDS011;2792;52.452;9.752;2022-12-29T00:46:31;1.60;;;1.50;;
5539;SDS011;2792;52.452;9.752;2022-12-29T00:48:57;1.83;;;1.63;;
5539;SDS011;2792;52.452;9.752;2022-12-29T00:51:48;1.70;;;1.60;;
5539;SDS011;2792;52.452;9.752;2022-12-29T00:54:15;1.77;;;1.63;;
5539;SDS011;2792;52.452;9.752;2022-12-29T00:56:41;1.93;;;1.60;;
5539;SDS011;2792;52.452;9.752;2022-12-29T00:59:08;1.63;;;1.50;;
5539;SDS011;2792;52.452;9.752;2022-12-29T01:01:36;2.40;;;1.73;;
5539;SDS011;2792;52.452;9.752;2022-12-29T01:04:03;2.13;;;1.93;;
5539;SDS011;2792;52.452;9.752;2022-12-29T01:06:30;1.50;;;1.40;;
5539;SDS011;2792;52.452;9.752;2022-12-29T01:08:58;2.17;;;1.70;;
5539;SDS011;2792;52.452;9.752;2022-12-29T01:11:42;2.17;;;1.70;;
5539;SDS011;2792;52.452;9.752;2022-12-29T01:14:08;1.80;;;1.70;;
5539;SDS011;2792;52.452;9.752;2022-12-29T01:16:35;2.37;;;1.60;;
5539;SDS011;2792;52.452;9.752;2022-12-29T01:19:02;2.60;;;1.60;;
5539;SDS011;2792;52.452;9.752;2022-12-29T01:21:29;2.63;;;1.80;;
5539;SDS011;2792;52.452;9.752;2022-12-29T01:23:55;2.40;;;1.80;;
5539;SDS011;2792;52.452;9.752;2022-12-29T01:26:23;1.90;;;1.60;;
5539;SDS011;2792;52.452;9.752;2022-12-29T01:28:50;1.67;;;1.57;;
5539;SDS011;2792;52.452;9.752;2022-12-29T01:31:16;1.63;;;1.50;;
5539;SDS011;2792;52.452;9.752;2022-12-29T01:33:43;2.03;;;1.80;;
5539;SDS011;2792;52.452;9.752;2022-12-29T01:36:10;1.63;;;1.50;;
5539;SDS011;2792;52.452;9.752;2022-12-29T01:38:38;1.87;;;1.47;;
5539;SDS011;2792;52.452;9.752;2022-12-29T01:41:06;2.10;;;1.20;;
5539;SDS011;2792;52.452;9.752;2022-12-29T01:43:44;1.63;;;1.53;;
5539;SDS011;2792;52.452;9.752;2022-12-29T01:46:14;1.47;;;1.37;;
5539;SDS011;2792;52.452;9.752;2022-12-29T01:48:45;1.63;;;1.53;;
5539;SDS011;2792;52.452;9.752;2022-12-29T01:51:12;1.77;;;1.50;;
5539;SDS011;2792;52.452;9.752;2022-12-29T01:53:39;2.70;;;1.40;;
5539;SDS011;2792;52.452;9.752;2022-12-29T01:56:06;1.50;;;1.40;;
5539;SDS011;2792;52.452;9.752;2022-12-29T01:58:34;6.67;;;1.53;;
5539;SDS011;2792;52.452;9.752;2022-12-29T02:01:06;3.03;;;1.30;;
5539;SDS011;2792;52.452;9.752;2022-12-29T02:03:32;2.80;;;1.50;;
5539;SDS011;2792;52.452;9.752;2022-12-29T02:06:01;1.40;;;1.30;;
5539;SDS011;2792;52.452;9.752;2022-12-29T02:08:29;1.57;;;1.47;;
5539;SDS011;2792;52.452;9.752;2022-12-29T02:10:56;1.80;;;1.47;;
5539;SDS011;2792;52.452;9.752;2022-12-29T02:13:24;2.30;;;1.53;;
5539;SDS011;2792;52.452;9.752;2022-12-29T02:15:53;2.40;;;1.20;;
5539;SDS011;2792;52.452;9.752;2022-12-29T02:18:28;2.33;;;1.57;;
5539;SDS011;2792;52.452;9.752;2022-12-29T02:30:32;1.57;;;1.47;;
5539;SDS011;2792;52.452;9.752;2022-12-29T02:33:04;1.37;;;1.27;;
5539;SDS011;2792;52.452;9.752;2022-12-29T02:35:34;2.17;;;1.40;;
5539;SDS011;2792;52.452;9.752;2022-12-29T02:38:07;1.40;;;1.30;;
5539;SDS011;2792;52.452;9.752;2022-12-29T02:40:40;1.33;;;1.23;;
5539;SDS011;2792;52.452;9.752;2022-12-29T02:43:13;1.30;;;1.20;;
5539;SDS011;2792;52.452;9.752;2022-12-29T02:45:46;1.27;;;1.10;;
5539;SDS011;2792;52.452;9.752;2022-12-29T02:48:15;1.80;;;1.40;;
5539;SDS011;2792;52.452;9.752;2022-12-29T02:50:51;1.70;;;1.20;;
5539;SDS011;2792;52.452;9.752;2022-12-29T02:53:21;1.43;;;1.33;;
5539;SDS011;2792;52.452;9.752;2022-12-29T02:56:03;1.30;;;1.20;;
5539;SDS011;2792;52.452;9.752;2022-12-29T02:58:30;1.00;;;1.00;;
5539;SDS011;2792;52.452;9.752;2022-12-29T03:01:03;1.10;;;1.10;;
5539;SDS011;2792;52.452;9.752;2022-12-29T03:03:41;1.30;;;1.20;;
5539;SDS011;2792;52.452;9.752;2022-12-29T03:06:17;1.30;;;1.20;;
5539;SDS011;2792;52.452;9.752;2022-12-29T03:08:54;4.37;;;1.33;;
5539;SDS011;2792;52.452;9.752;2022-12-29T03:11:21;1.27;;;1.00;;
5539;SDS011;2792;52.452;9.752;2022-12-29T03:14:09;1.50;;;1.40;;
5539;SDS011;2792;52.452;9.752;2022-12-29T03:17:01;1.43;;;1.20;;
5539;SDS011;2792;52.452;9.752;2022-12-29T03:19:30;1.10;;;1.00;;
5539;SDS011;2792;52.452;9.752;2022-12-29T03:21:59;1.17;;;1.10;;
5539;SDS011;2792;52.452;9.752;2022-12-29T03:24:46;1.17;;;1.17;;
5539;SDS011;2792;52.452;9.752;2022-12-29T03:27:14;1.67;;;1.30;;
5539;SDS011;2792;52.452;9.752;2022-12-29T03:29:44;1.10;;;1.00;;
5539;SDS011;2792;52.452;9.752;2022-12-29T03:32:18;0.97;;;0.97;;
5539;SDS011;2792;52.452;9.752;2022-12-29T03:34:46;1.63;;;1.00;;
5539;SDS011;2792;52.452;9.752;2022-12-29T03:37:13;1.27;;;1.17;;
5539;SDS011;2792;52.452;9.752;2022-12-29T03:39:41;3.13;;;1.00;;
5539;SDS011;2792;52.452;9.752;2022-12-29T03:42:09;1.50;;;1.03;;
5539;SDS011;2792;52.452;9.752;2022-12-29T03:44:38;1.13;;;1.03;;
5539;SDS011;2792;52.452;9.752;2022-12-29T03:47:06;1.57;;;1.30;;
5539;SDS011;2792;52.452;9.752;2022-12-29T03:49:35;0.87;;;0.87;;
5539;SDS011;2792;52.452;9.752;2022-12-29T03:52:01;1.10;;;1.00;;
5539;SDS011;2792;52.452;9.752;2022-12-29T03:54:28;1.10;;;1.10;;
5539;SDS011;2792;52.452;9.752;2022-12-29T03:56:55;1.10;;;0.93;;
5539;SDS011;2792;52.452;9.752;2022-12-29T03:59:21;2.30;;;1.10;;
5539;SDS011;2792;52.452;9.752;2022-12-29T04:01:48;3.87;;;1.10;;
5539;SDS011;2792;52.452;9.752;2022-12-29T04:04:14;1.20;;;1.10;;
5539;SDS011;2792;52.452;9.752;2022-12-29T04:06:42;0.87;;;0.83;;
5539;SDS011;2792;52.452;9.752;2022-12-29T04:09:09;1.00;;;1.00;;
5539;SDS011;2792;52.452;9.752;2022-12-29T04:11:36;0.90;;;0.90;;
5539;SDS011;2792;52.452;9.752;2022-12-29T04:14:02;1.63;;;0.90;;
5539;SDS011;2792;52.452;9.752;2022-12-29T04:16:29;0.90;;;0.90;;
5539;SDS011;2792;52.452;9.752;2022-12-29T04:18:55;1.33;;;1.23;;
5539;SDS011;2792;52.452;9.752;2022-12-29T04:21:22;1.23;;;0.90;;
5539;SDS011;2792;52.452;9.752;2022-12-29T04:23:49;0.80;;;0.80;;
5539;SDS011;2792;52.452;9.752;2022-12-29T04:26:16;1.17;;;1.00;;
5539;SDS011;2792;52.452;9.752;2022-12-29T04:28:42;1.20;;;1.10;;
5539;SDS011;2792;52.452;9.752;2022-12-29T04:31:09;1.03;;;0.93;;
5539;SDS011;2792;52.452;9.752;2022-12-29T04:33:36;0.90;;;0.90;;
5539;SDS011;2792;52.452;9.752;2022-12-29T04:36:02;1.67;;;0.90;;
5539;SDS011;2792;52.452;9.752;2022-12-29T04:38:29;0.73;;;0.73;;
5539;SDS011;2792;52.452;9.752;2022-12-29T04:40:58;1.13;;;0.90;;
5539;SDS011;2792;52.452;9.752;2022-12-29T04:43:25;1.00;;;0.90;;
5539;SDS011;2792;52.452;9.752;2022-12-29T04:45:51;0.90;;;0.87;;
5539;SDS011;2792;52.452;9.752;2022-12-29T04:48:18;1.23;;;0.80;;
5539;SDS011;2792;52.452;9.752;2022-12-29T04:50:46;0.80;;;0.80;;
5539;SDS011;2792;52.452;9.752;2022-12-29T04:53:13;0.90;;;0.90;;
5539;SDS011;2792;52.452;9.752;2022-12-29T04:55:40;1.10;;;1.00;;
5539;SDS011;2792;52.452;9.752;2022-12-29T04:58:07;1.23;;;1.03;;
5539;SDS011;2792;52.452;9.752;2022-12-29T05:00:34;0.93;;;0.93;;
5539;SDS011;2792;52.452;9.752;2022-12-29T05:03:01;1.53;;;0.90;;
5539;SDS011;2792;52.452;9.752;2022-12-29T05:05:27;0.80;;;0.80;;
5539;SDS011;2792;52.452;9.752;2022-12-29T05:07:54;1.73;;;0.90;;
5539;SDS011;2792;52.452;9.752;2022-12-29T05:10:20;1.20;;;0.80;;
5539;SDS011;2792;52.452;9.752;2022-12-29T05:12:47;3.20;;;1.33;;
5539;SDS011;2792;52.452;9.752;2022-12-29T05:15:15;0.90;;;0.90;;
5539;SDS011;2792;52.452;9.752;2022-12-29T05:17:41;0.70;;;0.70;;
5539;SDS011;2792;52.452;9.752;2022-12-29T05:20:08;2.03;;;1.03;;
5539;SDS011;2792;52.452;9.752;2022-12-29T05:22:35;1.23;;;0.80;;
5539;SDS011;2792;52.452;9.752;2022-12-29T05:25:01;0.80;;;0.80;;
5539;SDS011;2792;52.452;9.752;2022-12-29T05:27:28;1.50;;;0.97;;
5539;SDS011;2792;52.452;9.752;2022-12-29T05:29:55;0.70;;;0.70;;
5539;SDS011;2792;52.452;9.752;2022-12-29T05:32:22;0.80;;;0.80;;
5539;SDS011;2792;52.452;9.752;2022-12-29T05:34:49;1.13;;;0.77;;
5539;SDS011;2792;52.452;9.752;2022-12-29T05:37:16;0.80;;;0.80;;
5539;SDS011;2792;52.452;9.752;2022-12-29T05:39:42;0.90;;;0.70;;
5539;SDS011;2792;52.452;9.752;2022-12-29T05:42:09;1.10;;;0.80;;
5539;SDS011;2792;52.452;9.752;2022-12-29T05:44:35;0.77;;;0.77;;
5539;SDS011;2792;52.452;9.752;2022-12-29T05:47:02;0.80;;;0.63;;
5539;SDS011;2792;52.452;9.752;2022-12-29T05:49:30;1.27;;;0.70;;
5539;SDS011;2792;52.452;9.752;2022-12-29T05:51:56;2.60;;;1.00;;
5539;SDS011;2792;52.452;9.752;2022-12-29T05:54:23;0.60;;;0.60;;
5539;SDS011;2792;52.452;9.752;2022-12-29T05:56:49;1.10;;;0.70;;
5539;SDS011;2792;52.452;9.752;2022-12-29T05:59:16;0.70;;;0.70;;
5539;SDS011;2792;52.452;9.752;2022-12-29T06:01:42;1.33;;;0.70;;
5539;SDS011;2792;52.452;9.752;2022-12-29T06:04:09;1.03;;;0.70;;
5539;SDS011;2792;52.452;9.752;2022-12-29T06:06:37;1.10;;;0.87;;
5539;SDS011;2792;52.452;9.752;2022-12-29T06:09:04;1.03;;;0.83;;
5539;SDS011;2792;52.452;9.752;2022-12-29T06:11:31;3.03;;;0.80;;
5539;SDS011;2792;52.452;9.752;2022-12-29T06:13:57;0.80;;;0.80;;
5539;SDS011;2792;52.452;9.752;2022-12-29T06:16:24;0.90;;;0.90;;
5539;SDS011;2792;52.452;9.752;2022-12-29T06:18:50;0.90;;;0.90;;
5539;SDS011;2792;52.452;9.752;2022-12-29T06:21:17;1.07;;;0.93;;
5539;SDS011;2792;52.452;9.752;2022-12-29T06:23:45;0.97;;;0.97;;
5539;SDS011;2792;52.452;9.752;2022-12-29T06:26:11;1.20;;;1.10;;
5539;SDS011;2792;52.452;9.752;2022-12-29T06:28:38;0.90;;;0.90;;
5539;SDS011;2792;52.452;9.752;2022-12-29T06:31:04;0.83;;;0.83;;
5539;SDS011;2792;52.452;9.752;2022-12-29T06:33:30;1.80;;;1.13;;
5539;SDS011;2792;52.452;9.752;2022-12-29T06:35:57;1.23;;;0.90;;
5539;SDS011;2792;52.452;9.752;2022-12-29T06:38:23;0.90;;;0.90;;
5539;SDS011;2792;52.452;9.752;2022-12-29T06:40:51;0.80;;;0.80;;
5539;SDS011;2792;52.452;9.752;2022-12-29T06:43:18;1.97;;;0.83;;
5539;SDS011;2792;52.452;9.752;2022-12-29T06:45:44;2.50;;;1.10;;
5539;SDS011;2792;52.452;9.752;2022-12-29T06:48:11;2.17;;;1.00;;
5539;SDS011;2792;52.452;9.752;2022-12-29T06:50:37;1.30;;;1.20;;
5539;SDS011;2792;52.452;9.752;2022-12-29T06:53:04;1.43;;;0.80;;
5539;SDS011;2792;52.452;9.752;2022-12-29T06:55:30;0.80;;;0.80;;
5539;SDS011;2792;52.452;9.752;2022-12-29T06:57:58;1.47;;;1.00;;
5539;SDS011;2792;52.452;9.752;2022-12-29T07:00:26;2.53;;;0.77;;
5539;SDS011;2792;52.452;9.752;2022-12-29T07:02:52;0.87;;;0.83;;
5539;SDS011;2792;52.452;9.752;2022-12-29T07:05:20;1.13;;;0.80;;
5539;SDS011;2792;52.452;9.752;2022-12-29T07:07:47;0.77;;;0.77;;
5539;SDS011;2792;52.452;9.752;2022-12-29T07:10:13;0.80;;;0.80;;
5539;SDS011;2792;52.452;9.752;2022-12-29T07:12:40;0.90;;;0.90;;
5539;SDS011;2792;52.452;9.752;2022-12-29T07:15:08;1.50;;;0.90;;
5539;SDS011;2792;52.452;9.752;2022-12-29T07:17:35;6.50;;;1.40;;
5539;SDS011;2792;52.452;9.752;2022-12-29T07:20:02;3.90;;;1.23;;
5539;SDS011;2792;52.452;9.752;2022-12-29T07:22:29;1.50;;;1.00;;
5539;SDS011;2792;52.452;9.752;2022-12-29T07:24:55;1.43;;;0.77;;
5539;SDS011;2792;52.452;9.752;2022-12-29T07:27:22;1.17;;;0.83;;
5539;SDS011;2792;52.452;9.752;2022-12-29T07:29:48;1.07;;;0.60;;
5539;SDS011;2792;52.452;9.752;2022-12-29T07:32:16;0.93;;;0.60;;
5539;SDS011;2792;52.452;9.752;2022-12-29T07:34:43;1.27;;;0.70;;
5539;SDS011;2792;52.452;9.752;2022-12-29T07:37:12;3.23;;;0.87;;
5539;SDS011;2792;52.452;9.752;2022-12-29T07:39:39;1.63;;;0.80;;
5539;SDS011;2792;52.452;9.752;2022-12-29T07:42:06;1.57;;;0.70;;
5539;SDS011;2792;52.452;9.752;2022-12-29T07:44:32;1.50;;;0.80;;
5539;SDS011;2792;52.452;9.752;2022-12-29T07:46:59;2.30;;;0.80;;
5539;SDS011;2792;52.452;9.752;2022-12-29T07:49:26;1.50;;;0.80;;
5539;SDS011;2792;52.452;9.752;2022-12-29T07:51:53;0.60;;;0.50;;
5539;SDS011;2792;52.452;9.752;2022-12-29T07:54:19;2.60;;;0.70;;
5539;SDS011;2792;52.452;9.752;2022-12-29T07:56:47;1.20;;;1.10;;
5539;SDS011;2792;52.452;9.752;2022-12-29T07:59:14;1.00;;;0.60;;
5539;SDS011;2792;52.452;9.752;2022-12-29T08:01:40;0.90;;;0.73;;
5539;SDS011;2792;52.452;9.752;2022-12-29T08:04:07;1.67;;;0.70;;
5539;SDS011;2792;52.452;9.752;2022-12-29T08:06:35;1.07;;;1.00;;
5539;SDS011;2792;52.452;9.752;2022-12-29T08:09:02;1.33;;;0.67;;
5539;SDS011;2792;52.452;9.752;2022-12-29T08:11:29;1.23;;;0.80;;
5539;SDS011;2792;52.452;9.752;2022-12-29T08:13:56;0.90;;;0.70;;
5539;SDS011;2792;52.452;9.752;2022-12-29T08:16:22;1.23;;;0.93;;
5539;SDS011;2792;52.452;9.752;2022-12-29T08:18:49;1.77;;;1.30;;
5539;SDS011;2792;52.452;9.752;2022-12-29T08:21:15;0.80;;;0.80;;
5539;SDS011;2792;52.452;9.752;2022-12-29T08:23:43;2.10;;;1.00;;
5539;SDS011;2792;52.452;9.752;2022-12-29T08:26:10;1.13;;;0.90;;
5539;SDS011;2792;52.452;9.752;2022-12-29T08:28:36;7.10;;;1.30;;
5539;SDS011;2792;52.452;9.752;2022-12-29T08:31:03;0.83;;;0.83;;
5539;SDS011;2792;52.452;9.752;2022-12-29T08:33:30;1.37;;;1.07;;
5539;SDS011;2792;52.452;9.752;2022-12-29T08:35:58;1.23;;;1.13;;
5539;SDS011;2792;52.452;9.752;2022-12-29T08:38:26;1.23;;;0.93;;
5539;SDS011;2792;52.452;9.752;2022-12-29T08:40:54;2.87;;;1.27;;
5539;SDS011;2792;52.452;9.752;2022-12-29T08:43:21;5.20;;;1.40;;
5539;SDS011;2792;52.452;9.752;2022-12-29T08:45:47;1.57;;;1.10;;
5539;SDS011;2792;52.452;9.752;2022-12-29T08:48:14;3.80;;;1.57;;
5539;SDS011;2792;52.452;9.752;2022-12-29T08:50:43;3.47;;;1.10;;
5539;SDS011;2792;52.452;9.752;2022-12-29T08:53:09;3.23;;;1.13;;
5539;SDS011;2792;52.452;9.752;2022-12-29T08:55:36;2.60;;;1.30;;
5539;SDS011;2792;52.452;9.752;2022-12-29T08:58:04;1.27;;;1.17;;
5539;SDS011;2792;52.452;9.752;2022-12-29T09:00:30;1.77;;;0.90;;
5539;SDS011;2792;52.452;9.752;2022-12-29T09:02:57;4.50;;;1.30;;
5539;SDS011;2792;52.452;9.752;2022-12-29T09:05:23;2.23;;;1.10;;
5539;SDS011;2792;52.452;9.752;2022-12-29T09:07:50;2.97;;;1.13;;
5539;SDS011;2792;52.452;9.752;2022-12-29T09:10:17;3.40;;;1.00;;
5539;SDS011;2792;52.452;9.752;2022-12-29T09:12:43;2.47;;;1.00;;
5539;SDS011;2792;52.452;9.752;2022-12-29T09:15:11;0.90;;;0.90;;
5539;SDS011;2792;52.452;9.752;2022-12-29T09:17:38;6.33;;;1.13;;
5539;SDS011;2792;52.452;9.752;2022-12-29T09:20:09;1.70;;;1.20;;
5539;SDS011;2792;52.452;9.752;2022-12-29T09:22:36;2.10;;;0.90;;
5539;SDS011;2792;52.452;9.752;2022-12-29T09:25:03;3.37;;;1.10;;
5539;SDS011;2792;52.452;9.752;2022-12-29T09:27:30;2.10;;;1.10;;
5539;SDS011;2792;52.452;9.752;2022-12-29T09:29:56;3.50;;;1.30;;
5539;SDS011;2792;52.452;9.752;2022-12-29T09:32:24;1.63;;;1.53;;
5539;SDS011;2792;52.452;9.752;2022-12-29T09:34:50;4.53;;;1.93;;
5539;SDS011;2792;52.452;9.752;2022-12-29T09:37:17;3.97;;;1.20;;
5539;SDS011;2792;52.452;9.752;2022-12-29T09:39:43;4.90;;;1.23;;
5539;SDS011;2792;52.452;9.752;2022-12-29T09:42:12;2.80;;;1.57;;
5539;SDS011;2792;52.452;9.752;2022-12-29T09:44:46;2.43;;;1.67;;
5539;SDS011;2792;52.452;9.752;2022-12-29T09:47:18;2.10;;;1.30;;
5539;SDS011;2792;52.452;9.752;2022-12-29T09:49:47;2.43;;;1.30;;
5539;SDS011;2792;52.452;9.752;2022-12-29T09:52:15;3.00;;;1.17;;
5539;SDS011;2792;52.452;9.752;2022-12-29T09:54:46;6.80;;;1.57;;
5539;SDS011;2792;52.452;9.752;2022-12-29T09:57:18;2.07;;;1.07;;
5539;SDS011;2792;52.452;9.752;2022-12-29T09:59:46;2.60;;;1.20;;
5539;SDS011;2792;52.452;9.752;2022-12-29T10:02:19;2.30;;;1.33;;
5539;SDS011;2792;52.452;9.752;2022-12-29T10:04:51;1.93;;;1.20;;
5539;SDS011;2792;52.452;9.752;2022-12-29T10:07:21;6.40;;;1.90;;
5539;SDS011;2792;52.452;9.752;2022-12-29T10:09:53;3.07;;;1.60;;
5539;SDS011;2792;52.452;9.752;2022-12-29T10:12:30;4.70;;;2.23;;
5539;SDS011;2792;52.452;9.752;2022-12-29T10:15:08;2.10;;;1.63;;
5539;SDS011;2792;52.452;9.752;2022-12-29T10:17:41;3.63;;;1.90;;
5539;SDS011;2792;52.452;9.752;2022-12-29T10:20:17;1.93;;;1.80;;
5539;SDS011;2792;52.452;9.752;2022-12-29T10:22:53;2.10;;;1.90;;
5539;SDS011;2792;52.452;9.752;2022-12-29T10:25:25;3.43;;;1.67;;
5539;SDS011;2792;52.452;9.752;2022-12-29T10:27:53;2.70;;;1.80;;
5539;SDS011;2792;52.452;9.752;2022-12-29T10:30:22;3.53;;;1.70;;
5539;SDS011;2792;52.452;9.752;2022-12-29T10:32:49;2.20;;;1.87;;
5539;SDS011;2792;52.452;9.752;2022-12-29T10:35:19;2.80;;;1.93;;
5539;SDS011;2792;52.452;9.752;2022-12-29T10:37:49;1.60;;;1.50;;
5539;SDS011;2792;52.452;9.752;2022-12-29T10:40:19;2.13;;;1.63;;
5539;SDS011;2792;52.452;9.752;2022-12-29T10:42:52;4.30;;;1.63;;
5539;SDS011;2792;52.452;9.752;2022-12-29T10:45:19;1.77;;;1.60;;
5539;SDS011;2792;52.452;9.752;2022-12-29T10:47:50;2.70;;;1.70;;
5539;SDS011;2792;52.452;9.752;2022-12-29T10:50:20;2.60;;;1.20;;
5539;SDS011;2792;52.452;9.752;2022-12-29T10:52:47;1.33;;;1.23;;
5539;SDS011;2792;52.452;9.752;2022-12-29T10:55:15;4.37;;;1.40;;
5539;SDS011;2792;52.452;9.752;2022-12-29T10:57:45;2.60;;;1.60;;
5539;SDS011;2792;52.452;9.752;2022-12-29T11:00:12;1.77;;;1.37;;
5539;SDS011;2792;52.452;9.752;2022-12-29T11:02:43;6.93;;;1.63;;
5539;SDS011;2792;52.452;9.752;2022-12-29T11:05:18;3.43;;;1.50;;
5539;SDS011;2792;52.452;9.752;2022-12-29T11:07:49;1.40;;;1.30;;
5539;SDS011;2792;52.452;9.752;2022-12-29T11:10:17;3.07;;;1.40;;
5539;SDS011;2792;52.452;9.752;2022-12-29T11:12:55;2.50;;;1.50;;
5539;SDS011;2792;52.452;9.752;2022-12-29T11:15:23;2.37;;;1.33;;
5539;SDS011;2792;52.452;9.752;2022-12-29T11:17:50;6.57;;;1.50;;
5539;SDS011;2792;52.452;9.752;2022-12-29T11:20:23;4.73;;;1.77;;
5539;SDS011;2792;52.452;9.752;2022-12-29T11:22:55;2.70;;;1.50;;
5539;SDS011;2792;52.452;9.752;2022-12-29T11:25:22;1.40;;;1.30;;
5539;SDS011;2792;52.452;9.752;2022-12-29T11:27:54;3.20;;;1.40;;
5539;SDS011;2792;52.452;9.752;2022-12-29T11:30:22;1.70;;;1.20;;
5539;SDS011;2792;52.452;9.752;2022-12-29T11:32:50;3.43;;;1.37;;
5539;SDS011;2792;52.452;9.752;2022-12-29T11:35:18;3.90;;;1.50;;
5539;SDS011;2792;52.452;9.752;2022-12-29T11:37:57;6.30;;;1.57;;
5539;SDS011;2792;52.452;9.752;2022-12-29T11:40:25;1.43;;;1.30;;
5539;SDS011;2792;52.452;9.752;2022-12-29T11:42:52;4.83;;;2.20;;
5539;SDS011;2792;52.452;9.752;2022-12-29T11:45:20;5.60;;;1.90;;
5539;SDS011;2792;52.452;9.752;2022-12-29T11:47:49;4.50;;;1.50;;
5539;SDS011;2792;52.452;9.752;2022-12-29T11:50:17;6.43;;;1.40;;
5539;SDS011;2792;52.452;9.752;2022-12-29T11:52:46;2.80;;;1.57;;
5539;SDS011;2792;52.452;9.752;2022-12-29T11:55:16;6.40;;;1.70;;
5539;SDS011;2792;52.452;9.752;2022-12-29T11:57:44;6.00;;;1.93;;
5539;SDS011;2792;52.452;9.752;2022-12-29T12:00:14;2.97;;;1.27;;
5539;SDS011;2792;52.452;9.752;2022-12-29T12:02:44;2.17;;;1.60;;
5539;SDS011;2792;52.452;9.752;2022-12-29T12:05:24;6.47;;;1.50;;
5539;SDS011;2792;52.452;9.752;2022-12-29T12:07:59;4.93;;;1.40;;
5539;SDS011;2792;52.452;9.752;2022-12-29T12:10:28;2.53;;;1.60;;
5539;SDS011;2792;52.452;9.752;2022-12-29T12:13:05;2.47;;;1.40;;
5539;SDS011;2792;52.452;9.752;2022-12-29T12:15:38;1.53;;;1.20;;
5539;SDS011;2792;52.452;9.752;2022-12-29T12:18:08;3.17;;;1.20;;
5539;SDS011;2792;52.452;9.752;2022-12-29T12:20:42;2.30;;;1.53;;
5539;SDS011;2792;52.452;9.752;2022-12-29T12:26:04;2.70;;;1.43;;
5539;SDS011;2792;52.452;9.752;2022-12-29T12:28:39;4.17;;;1.60;;
5539;SDS011;2792;52.452;9.752;2022-12-29T12:31:20;3.60;;;1.40;;
5539;SDS011;2792;52.452;9.752;2022-12-29T12:33:50;3.03;;;1.00;;
5539;SDS011;2792;52.452;9.752;2022-12-29T12:36:30;4.00;;;1.20;;
5539;SDS011;2792;52.452;9.752;2022-12-29T12:39:12;4.53;;;1.40;;
5539;SDS011;2792;52.452;9.752;2022-12-29T12:41:50;7.50;;;1.20;;
5539;SDS011;2792;52.452;9.752;2022-12-29T12:44:23;5.77;;;1.60;;
5539;SDS011;2792;52.452;9.752;2022-12-29T12:47:16;2.63;;;1.30;;
5539;SDS011;2792;52.452;9.752;2022-12-29T12:52:44;6.53;;;1.73;;
5539;SDS011;2792;52.452;9.752;2022-12-29T12:55:30;4.00;;;1.30;;
5539;SDS011;2792;52.452;9.752;2022-12-29T12:58:04;4.50;;;1.50;;
5539;SDS011;2792;52.452;9.752;2022-12-29T13:00:38;2.67;;;1.00;;
5539;SDS011;2792;52.452;9.752;2022-12-29T13:03:10;2.63;;;1.00;;
5539;SDS011;2792;52.452;9.752;2022-12-29T13:05:42;2.40;;;1.13;;
5539;SDS011;2792;52.452;9.752;2022-12-29T13:08:24;3.00;;;1.40;;
5539;SDS011;2792;52.452;9.752;2022-12-29T13:11:07;3.63;;;1.20;;
5539;SDS011;2792;52.452;9.752;2022-12-29T13:16:27;4.10;;;1.50;;
5539;SDS011;2792;52.452;9.752;2022-12-29T13:18:57;2.70;;;1.13;;
5539;SDS011;2792;52.452;9.752;2022-12-29T13:21:30;2.07;;;1.37;;
5539;SDS011;2792;52.452;9.752;2022-12-29T13:24:02;3.20;;;1.33;;
5539;SDS011;2792;52.452;9.752;2022-12-29T13:26:39;4.13;;;1.60;;
5539;SDS011;2792;52.452;9.752;2022-12-29T13:29:11;11.73;;;1.27;;
5539;SDS011;2792;52.452;9.752;2022-12-29T13:31:42;2.40;;;1.40;;
5539;SDS011;2792;52.452;9.752;2022-12-29T13:34:13;3.33;;;1.60;;
5539;SDS011;2792;52.452;9.752;2022-12-29T13:36:46;4.07;;;1.47;;
5539;SDS011;2792;52.452;9.752;2022-12-29T13:39:15;7.43;;;1.57;;
5539;SDS011;2792;52.452;9.752;2022-12-29T13:41:47;2.50;;;1.33;;
5539;SDS011;2792;52.452;9.752;2022-12-29T13:44:15;5.43;;;1.77;;
5539;SDS011;2792;52.452;9.752;2022-12-29T13:46:43;6.20;;;1.60;;
5539;SDS011;2792;52.452;9.752;2022-12-29T13:49:12;2.10;;;1.00;;
5539;SDS011;2792;52.452;9.752;2022-12-29T13:51:41;2.93;;;1.17;;
5539;SDS011;2792;52.452;9.752;2022-12-29T13:54:14;3.13;;;1.40;;
5539;SDS011;2792;52.452;9.752;2022-12-29T13:56:51;2.53;;;1.10;;
5539;SDS011;2792;52.452;9.752;2022-12-29T13:59:21;5.15;;;1.40;;
5539;SDS011;2792;52.452;9.752;2022-12-29T14:01:53;2.87;;;1.50;;
5539;SDS011;2792;52.452;9.752;2022-12-29T14:04:23;1.83;;;1.30;;
5539;SDS011;2792;52.452;9.752;2022-12-29T14:06:59;2.87;;;1.20;;
5539;SDS011;2792;52.452;9.752;2022-12-29T14:09:31;3.40;;;1.60;;
5539;SDS011;2792;52.452;9.752;2022-12-29T14:12:16;1.53;;;1.37;;
5539;SDS011;2792;52.452;9.752;2022-12-29T14:15:01;6.07;;;1.47;;
5539;SDS011;2792;52.452;9.752;2022-12-29T14:17:33;6.20;;;1.20;;
5539;SDS011;2792;52.452;9.752;2022-12-29T14:19:59;3.00;;;1.50;;
5539;SDS011;2792;52.452;9.752;2022-12-29T14:22:26;9.40;;;2.03;;
5539;SDS011;2792;52.452;9.752;2022-12-29T14:24:53;4.90;;;1.50;;
5539;SDS011;2792;52.452;9.752;2022-12-29T14:33:15;6.60;;;1.60;;
5539;SDS011;2792;52.452;9.752;2022-12-29T14:35:43;6.03;;;2.33;;
5539;SDS011;2792;52.452;9.752;2022-12-29T14:38:18;5.23;;;1.73;;
5539;SDS011;2792;52.452;9.752;2022-12-29T14:40:46;3.00;;;1.50;;
5539;SDS011;2792;52.452;9.752;2022-12-29T14:43:18;2.30;;;2.10;;
5539;SDS011;2792;52.452;9.752;2022-12-29T14:45:51;3.53;;;1.43;;
5539;SDS011;2792;52.452;9.752;2022-12-29T14:48:28;5.00;;;1.47;;
5539;SDS011;2792;52.452;9.752;2022-12-29T14:50:56;3.60;;;1.47;;
5539;SDS011;2792;52.452;9.752;2022-12-29T14:53:41;2.70;;;1.30;;
5539;SDS011;2792;52.452;9.752;2022-12-29T14:56:09;4.77;;;1.40;;
5539;SDS011;2792;52.452;9.752;2022-12-29T14:58:41;7.10;;;1.70;;
5539;SDS011;2792;52.452;9.752;2022-12-29T15:01:15;4.07;;;1.90;;
5539;SDS011;2792;52.452;9.752;2022-12-29T15:03:45;7.90;;;1.77;;
5539;SDS011;2792;52.452;9.752;2022-12-29T15:06:14;6.90;;;2.20;;
5539;SDS011;2792;52.452;9.752;2022-12-29T15:08:45;7.10;;;2.40;;
5539;SDS011;2792;52.452;9.752;2022-12-29T15:11:15;3.67;;;1.83;;
5539;SDS011;2792;52.452;9.752;2022-12-29T15:13:45;2.07;;;1.37;;
5539;SDS011;2792;52.452;9.752;2022-12-29T15:16:23;3.03;;;1.70;;
5539;SDS011;2792;52.452;9.752;2022-12-29T15:18:51;2.03;;;1.60;;
5539;SDS011;2792;52.452;9.752;2022-12-29T15:21:19;3.53;;;2.00;;
5539;SDS011;2792;52.452;9.752;2022-12-29T15:23:48;2.70;;;1.50;;
5539;SDS011;2792;52.452;9.752;2022-12-29T15:26:15;5.23;;;1.57;;
5539;SDS011;2792;52.452;9.752;2022-12-29T15:28:49;2.77;;;1.57;;
5539;SDS011;2792;52.452;9.752;2022-12-29T15:31:17;1.93;;;1.47;;
5539;SDS011;2792;52.452;9.752;2022-12-29T15:33:45;2.80;;;1.10;;
5539;SDS011;2792;52.452;9.752;2022-12-29T15:36:14;4.97;;;1.70;;
5539;SDS011;2792;52.452;9.752;2022-12-29T15:38:44;7.20;;;1.80;;
5539;SDS011;2792;52.452;9.752;2022-12-29T15:41:15;6.63;;;1.97;;
5539;SDS011;2792;52.452;9.752;2022-12-29T15:44:02;2.60;;;1.57;;
5539;SDS011;2792;52.452;9.752;2022-12-29T15:46:35;2.50;;;1.60;;
5539;SDS011;2792;52.452;9.752;2022-12-29T15:49:04;4.53;;;1.70;;
5539;SDS011;2792;52.452;9.752;2022-12-29T15:51:33;7.20;;;1.83;;
5539;SDS011;2792;52.452;9.752;2022-12-29T15:54:02;6.07;;;2.07;;
5539;SDS011;2792;52.452;9.752;2022-12-29T15:56:28;2.20;;;1.43;;